Terminal Aerodrome Forecast
Issued by NWS Tuscon, AZ

Current Version | Previous Version | Text Only | Print | Product List | Glossary On
Versions: 1 2 3 4 5 6 7 8 9 10 11 12 13 14 15 16 17 18 19 20 21 22 23 24
000
FTUS45 KTWC 010314 AAC
TAFTUS
TAF AMD
KTUS 010314Z 0103/0124 24010KT P6SM VCTS SCT080CB SCT120
      TEMPO 0103/0105 VRB15G30KT -TSRA BKN080CB
     FM010500 16007KT P6SM SCT080 SCT120
     FM011800 28005KT P6SM SCT250=

USA.gov is the U.S. government's official web portal to all federal, state and local government web resources and services.